sensor_id;sensor_type;location;lat;lon;timestamp;pressure;altitude;pressure_sealevel;temperature;humidity
43741;BME280;29352;48.708;9.290;2023-02-11T00:00:22;99876.56;;;-10.66;80.82
43741;BME280;29352;48.708;9.290;2023-02-11T00:02:47;99881.53;;;-10.55;80.20
43741;BME280;29352;48.708;9.290;2023-02-11T00:05:13;99870.06;;;-10.43;79.63
43741;BME280;29352;48.708;9.290;2023-02-11T00:07:39;99876.88;;;-10.41;80.07
43741;BME280;29352;48.708;9.290;2023-02-11T00:10:05;99884.16;;;-10.58;80.79
43741;BME280;29352;48.708;9.290;2023-02-11T00:12:35;99883.56;;;-10.32;79.19
43741;BME280;29352;48.708;9.290;2023-02-11T00:15:03;99877.53;;;-10.31;78.82
43741;BME280;29352;48.708;9.290;2023-02-11T00:17:31;99883.13;;;-10.51;79.05
43741;BME280;29352;48.708;9.290;2023-02-11T00:19:56;99867.34;;;-10.37;78.67
43741;BME280;29352;48.708;9.290;2023-02-11T00:22:22;99876.31;;;-10.54;78.96
43741;BME280;29352;48.708;9.290;2023-02-11T00:24:47;99879.50;;;-10.81;79.29
43741;BME280;29352;48.708;9.290;2023-02-11T00:27:13;99882.44;;;-10.58;78.49
43741;BME280;29352;48.708;9.290;2023-02-11T00:29:39;99882.97;;;-10.84;79.08
43741;BME280;29352;48.708;9.290;2023-02-11T00:32:05;99879.91;;;-11.01;79.61
43741;BME280;29352;48.708;9.290;2023-02-11T00:34:34;99878.38;;;-11.10;79.81
43741;BME280;29352;48.708;9.290;2023-02-11T00:37:01;99884.84;;;-10.90;79.63
43741;BME280;29352;48.708;9.290;2023-02-11T00:39:27;99881.53;;;-10.96;79.46
43741;BME280;29352;48.708;9.290;2023-02-11T00:41:53;99878.97;;;-10.97;79.76
43741;BME280;29352;48.708;9.290;2023-02-11T00:44:19;99870.03;;;-11.21;80.02
43741;BME280;29352;48.708;9.290;2023-02-11T00:46:44;99867.84;;;-11.01;79.74
43741;BME280;29352;48.708;9.290;2023-02-11T00:49:10;99869.47;;;-10.95;80.07
43741;BME280;29352;48.708;9.290;2023-02-11T00:51:35;99859.75;;;-10.84;80.43
43741;BME280;29352;48.708;9.290;2023-02-11T00:54:01;99851.22;;;-10.86;80.01
43741;BME280;29352;48.708;9.290;2023-02-11T00:56:27;99857.41;;;-10.94;80.98
43741;BME280;29352;48.708;9.290;2023-02-11T00:58:53;99853.50;;;-10.72;79.86
43741;BME280;29352;48.708;9.290;2023-02-11T01:01:18;99858.50;;;-10.66;79.98
43741;BME280;29352;48.708;9.290;2023-02-11T01:03:44;99862.66;;;-10.59;79.36
43741;BME280;29352;48.708;9.290;2023-02-11T01:06:10;99869.72;;;-10.67;79.59
43741;BME280;29352;48.708;9.290;2023-02-11T01:08:37;99861.84;;;-10.61;79.89
43741;BME280;29352;48.708;9.290;2023-02-11T01:11:06;99863.19;;;-10.44;77.82
43741;BME280;29352;48.708;9.290;2023-02-11T01:13:36;99860.81;;;-10.54;77.95
43741;BME280;29352;48.708;9.290;2023-02-11T01:16:04;99860.63;;;-10.44;78.07
43741;BME280;29352;48.708;9.290;2023-02-11T01:18:31;99852.59;;;-10.71;77.46
43741;BME280;29352;48.708;9.290;2023-02-11T01:20:57;99843.56;;;-10.90;78.26
43741;BME280;29352;48.708;9.290;2023-02-11T01:23:22;99842.16;;;-11.04;78.86
43741;BME280;29352;48.708;9.290;2023-02-11T01:25:48;99836.22;;;-11.09;78.68
43741;BME280;29352;48.708;9.290;2023-02-11T01:28:25;99825.69;;;-11.38;80.25
43741;BME280;29352;48.708;9.290;2023-02-11T01:30:52;99823.22;;;-11.45;80.36
43741;BME280;29352;48.708;9.290;2023-02-11T01:33:19;99818.91;;;-11.46;79.86
43741;BME280;29352;48.708;9.290;2023-02-11T01:35:46;99823.72;;;-11.27;79.80
43741;BME280;29352;48.708;9.290;2023-02-11T01:38:20;99827.94;;;-11.23;81.18
43741;BME280;29352;48.708;9.290;2023-02-11T01:40:51;99816.72;;;-11.22;81.53
43741;BME280;29352;48.708;9.290;2023-02-11T01:43:22;99828.97;;;-10.91;80.44
43741;BME280;29352;48.708;9.290;2023-02-11T01:48:43;99825.66;;;-10.97;79.72
43741;BME280;29352;48.708;9.290;2023-02-11T01:51:19;99820.34;;;-10.90;79.13
43741;BME280;29352;48.708;9.290;2023-02-11T01:53:55;99812.09;;;-11.06;79.32
43741;BME280;29352;48.708;9.290;2023-02-11T01:56:46;99823.50;;;-10.78;78.71
43741;BME280;29352;48.708;9.290;2023-02-11T01:59:43;99816.28;;;-11.01;78.98
43741;BME280;29352;48.708;9.290;2023-02-11T02:02:21;99811.06;;;-11.39;80.02
43741;BME280;29352;48.708;9.290;2023-02-11T02:05:09;99813.41;;;-11.27;80.46
43741;BME280;29352;48.708;9.290;2023-02-11T02:10:40;99808.88;;;-11.16;79.98
43741;BME280;29352;48.708;9.290;2023-02-11T02:13:10;99794.41;;;-10.84;78.99
43741;BME280;29352;48.708;9.290;2023-02-11T02:15:39;99796.19;;;-10.86;79.25
43741;BME280;29352;48.708;9.290;2023-02-11T02:18:48;99804.97;;;-10.93;79.76
43741;BME280;29352;48.708;9.290;2023-02-11T02:34:28;99790.94;;;-10.83;79.48
43741;BME280;29352;48.708;9.290;2023-02-11T02:37:20;99785.25;;;-10.98;78.96
43741;BME280;29352;48.708;9.290;2023-02-11T02:39:58;99780.56;;;-11.19;78.71
43741;BME280;29352;48.708;9.290;2023-02-11T02:42:32;99779.41;;;-11.45;79.42
43741;BME280;29352;48.708;9.290;2023-02-11T02:44:58;99785.84;;;-11.25;79.36
43741;BME280;29352;48.708;9.290;2023-02-11T02:47:23;99779.69;;;-11.18;79.01
43741;BME280;29352;48.708;9.290;2023-02-11T02:49:49;99774.63;;;-11.21;79.08
43741;BME280;29352;48.708;9.290;2023-02-11T02:52:42;99774.97;;;-11.38;79.95
43741;BME280;29352;48.708;9.290;2023-02-11T03:12:28;99763.34;;;-11.57;80.37
43741;BME280;29352;48.708;9.290;2023-02-11T03:14:58;99752.41;;;-11.28;80.09
43741;BME280;29352;48.708;9.290;2023-02-11T03:17:29;99750.53;;;-11.22;79.95
43741;BME280;29352;48.708;9.290;2023-02-11T03:20:01;99752.63;;;-11.37;80.70
43741;BME280;29352;48.708;9.290;2023-02-11T03:22:44;99748.53;;;-11.09;79.93
43741;BME280;29352;48.708;9.290;2023-02-11T03:25:15;99756.69;;;-11.27;79.66
43741;BME280;29352;48.708;9.290;2023-02-11T03:36:38;99750.63;;;-10.87;79.42
43741;BME280;29352;48.708;9.290;2023-02-11T03:39:20;99749.00;;;-10.91;79.05
43741;BME280;29352;48.708;9.290;2023-02-11T03:41:53;99743.06;;;-10.93;78.98
43741;BME280;29352;48.708;9.290;2023-02-11T03:44:27;99744.16;;;-11.04;78.55
43741;BME280;29352;48.708;9.290;2023-02-11T03:46:59;99753.19;;;-10.86;78.75
43741;BME280;29352;48.708;9.290;2023-02-11T03:49:30;99751.47;;;-10.87;78.95
43741;BME280;29352;48.708;9.290;2023-02-11T03:52:00;99755.06;;;-10.92;79.30
43741;BME280;29352;48.708;9.290;2023-02-11T03:54:29;99759.28;;;-11.27;79.85
43741;BME280;29352;48.708;9.290;2023-02-11T03:56:58;99739.50;;;-10.89;79.35
43741;BME280;29352;48.708;9.290;2023-02-11T03:59:25;99750.28;;;-10.72;78.88
43741;BME280;29352;48.708;9.290;2023-02-11T04:01:51;99743.84;;;-10.56;79.04
43741;BME280;29352;48.708;9.290;2023-02-11T04:04:17;99749.66;;;-10.13;77.82
43741;BME280;29352;48.708;9.290;2023-02-11T04:06:43;99748.53;;;-10.72;78.50
43741;BME280;29352;48.708;9.290;2023-02-11T04:09:10;99745.47;;;-10.87;79.69
43741;BME280;29352;48.708;9.290;2023-02-11T04:11:36;99745.81;;;-10.65;79.59
43741;BME280;29352;48.708;9.290;2023-02-11T04:14:02;99758.81;;;-10.70;79.15
43741;BME280;29352;48.708;9.290;2023-02-11T04:16:28;99754.78;;;-10.44;79.04
43741;BME280;29352;48.708;9.290;2023-02-11T04:18:55;99761.47;;;-10.37;78.92
43741;BME280;29352;48.708;9.290;2023-02-11T04:21:21;99775.78;;;-10.60;79.40
43741;BME280;29352;48.708;9.290;2023-02-11T04:23:47;99785.97;;;-10.54;80.22
43741;BME280;29352;48.708;9.290;2023-02-11T04:26:12;99778.09;;;-10.15;79.10
43741;BME280;29352;48.708;9.290;2023-02-11T04:28:38;99778.59;;;-10.33;79.93
43741;BME280;29352;48.708;9.290;2023-02-11T04:31:04;99781.00;;;-9.94;79.49
43741;BME280;29352;48.708;9.290;2023-02-11T04:33:29;99779.69;;;-10.79;80.88
43741;BME280;29352;48.708;9.290;2023-02-11T04:35:54;99791.41;;;-10.66;80.90
43741;BME280;29352;48.708;9.290;2023-02-11T04:38:20;99781.66;;;-10.90;81.41
43741;BME280;29352;48.708;9.290;2023-02-11T04:40:48;99772.09;;;-10.50;80.76
43741;BME280;29352;48.708;9.290;2023-02-11T04:43:14;99779.53;;;-10.73;80.55
43741;BME280;29352;48.708;9.290;2023-02-11T04:45:39;99767.75;;;-11.22;81.75
43741;BME280;29352;48.708;9.290;2023-02-11T04:48:05;99772.09;;;-10.50;81.12
43741;BME280;29352;48.708;9.290;2023-02-11T04:50:30;99773.44;;;-10.69;81.43
43741;BME280;29352;48.708;9.290;2023-02-11T04:52:55;99766.72;;;-10.40;79.67
43741;BME280;29352;48.708;9.290;2023-02-11T04:55:21;99760.72;;;-10.08;79.22
43741;BME280;29352;48.708;9.290;2023-02-11T04:57:46;99766.81;;;-10.11;78.20
43741;BME280;29352;48.708;9.290;2023-02-11T05:00:12;99770.63;;;-10.60;80.77
43741;BME280;29352;48.708;9.290;2023-02-11T05:02:38;99762.88;;;-10.26;79.91
43741;BME280;29352;48.708;9.290;2023-02-11T05:05:04;99761.25;;;-9.95;79.32
43741;BME280;29352;48.708;9.290;2023-02-11T05:07:30;99751.13;;;-10.03;79.32
43741;BME280;29352;48.708;9.290;2023-02-11T05:09:56;99752.53;;;-10.24;79.78
43741;BME280;29352;48.708;9.290;2023-02-11T05:12:21;99746.13;;;-9.78;79.29
43741;BME280;29352;48.708;9.290;2023-02-11T05:14:47;99750.31;;;-10.05;80.23
43741;BME280;29352;48.708;9.290;2023-02-11T05:17:12;99742.25;;;-9.93;79.71
43741;BME280;29352;48.708;9.290;2023-02-11T05:19:38;99742.25;;;-9.93;79.76
43741;BME280;29352;48.708;9.290;2023-02-11T05:22:03;99726.63;;;-9.90;79.74
43741;BME280;29352;48.708;9.290;2023-02-11T05:24:30;99715.97;;;-10.09;79.87
43741;BME280;29352;48.708;9.290;2023-02-11T05:26:56;99713.72;;;-9.90;80.07
43741;BME280;29352;48.708;9.290;2023-02-11T05:29:21;99709.59;;;-9.97;79.14
43741;BME280;29352;48.708;9.290;2023-02-11T05:31:47;99692.84;;;-9.82;78.56
43741;BME280;29352;48.708;9.290;2023-02-11T05:34:12;99699.22;;;-9.64;78.46
43741;BME280;29352;48.708;9.290;2023-02-11T05:36:38;99684.81;;;-10.03;79.34
43741;BME280;29352;48.708;9.290;2023-02-11T05:39:03;99689.88;;;-9.70;79.30
43741;BME280;29352;48.708;9.290;2023-02-11T05:41:29;99682.53;;;-9.84;79.38
43741;BME280;29352;48.708;9.290;2023-02-11T05:43:54;99694.59;;;-9.84;79.59
43741;BME280;29352;48.708;9.290;2023-02-11T05:46:20;99694.44;;;-9.78;80.16
43741;BME280;29352;48.708;9.290;2023-02-11T05:48:45;99692.09;;;-9.87;80.08
43741;BME280;29352;48.708;9.290;2023-02-11T05:51:11;99708.03;;;-9.71;80.45
43741;BME280;29352;48.708;9.290;2023-02-11T05:53:36;99701.47;;;-9.54;79.43
43741;BME280;29352;48.708;9.290;2023-02-11T05:56:01;99700.16;;;-9.37;78.96
43741;BME280;29352;48.708;9.290;2023-02-11T05:58:27;99700.69;;;-9.27;78.44
43741;BME280;29352;48.708;9.290;2023-02-11T06:00:53;99690.91;;;-9.46;78.55
43741;BME280;29352;48.708;9.290;2023-02-11T06:03:18;99685.47;;;-9.09;78.48
43741;BME280;29352;48.708;9.290;2023-02-11T06:05:44;99687.63;;;-9.81;80.55
43741;BME280;29352;48.708;9.290;2023-02-11T06:08:11;99697.38;;;-9.61;80.58
43741;BME280;29352;48.708;9.290;2023-02-11T06:10:37;99689.41;;;-9.53;80.65
43741;BME280;29352;48.708;9.290;2023-02-11T06:13:03;99692.31;;;-9.34;80.34
43741;BME280;29352;48.708;9.290;2023-02-11T06:15:29;99689.03;;;-9.41;79.82
43741;BME280;29352;48.708;9.290;2023-02-11T06:17:55;99712.94;;;-9.62;80.61
43741;BME280;29352;48.708;9.290;2023-02-11T06:20:20;99719.97;;;-9.38;80.38
43741;BME280;29352;48.708;9.290;2023-02-11T06:22:46;99711.16;;;-9.02;79.83
43741;BME280;29352;48.708;9.290;2023-02-11T06:25:12;99721.03;;;-8.62;79.07
43741;BME280;29352;48.708;9.290;2023-02-11T06:27:38;99718.28;;;-9.11;78.67
43741;BME280;29352;48.708;9.290;2023-02-11T06:30:05;99718.28;;;-9.11;80.11
43741;BME280;29352;48.708;9.290;2023-02-11T06:32:31;99717.91;;;-8.98;80.11
43741;BME280;29352;48.708;9.290;2023-02-11T06:34:57;99717.84;;;-9.25;80.81
43741;BME280;29352;48.708;9.290;2023-02-11T06:37:22;99714.44;;;-9.55;80.57
43741;BME280;29352;48.708;9.290;2023-02-11T06:39:48;99719.66;;;-9.57;80.62
43741;BME280;29352;48.708;9.290;2023-02-11T06:42:13;99728.94;;;-9.49;80.76
43741;BME280;29352;48.708;9.290;2023-02-11T06:44:39;99734.53;;;-9.35;80.75
43741;BME280;29352;48.708;9.290;2023-02-11T06:47:04;99716.19;;;-9.26;80.17
43741;BME280;29352;48.708;9.290;2023-02-11T06:49:30;99715.94;;;-9.18;80.38
43741;BME280;29352;48.708;9.290;2023-02-11T06:51:56;99717.81;;;-8.95;79.72
43741;BME280;29352;48.708;9.290;2023-02-11T06:54:21;99719.84;;;-9.33;80.11
43741;BME280;29352;48.708;9.290;2023-02-11T06:56:47;99724.53;;;-8.90;78.43
43741;BME280;29352;48.708;9.290;2023-02-11T06:59:17;99728.94;;;-8.93;78.85
43741;BME280;29352;48.708;9.290;2023-02-11T07:01:45;99723.31;;;-8.78;78.89
43741;BME280;29352;48.708;9.290;2023-02-11T07:04:11;99738.78;;;-8.76;78.68
43741;BME280;29352;48.708;9.290;2023-02-11T07:06:36;99737.47;;;-8.90;79.34
43741;BME280;29352;48.708;9.290;2023-02-11T07:09:03;99737.00;;;-9.60;81.42
43741;BME280;29352;48.708;9.290;2023-02-11T07:11:30;99744.53;;;-9.23;81.12
43741;BME280;29352;48.708;9.290;2023-02-11T07:14:00;99737.13;;;-9.35;80.68
43741;BME280;29352;48.708;9.290;2023-02-11T07:16:32;99739.03;;;-9.40;81.50
43741;BME280;29352;48.708;9.290;2023-02-11T07:18:58;99734.03;;;-9.18;81.64
43741;BME280;29352;48.708;9.290;2023-02-11T07:21:24;99733.53;;;-9.01;80.74
43741;BME280;29352;48.708;9.290;2023-02-11T07:23:50;99731.59;;;-8.95;80.69
43741;BME280;29352;48.708;9.290;2023-02-11T07:26:19;99732.94;;;-8.83;80.65
43741;BME280;29352;48.708;9.290;2023-02-11T07:28:54;99724.94;;;-8.75;80.00
43741;BME280;29352;48.708;9.290;2023-02-11T07:31:23;99725.00;;;-8.77;80.21
43741;BME280;29352;48.708;9.290;2023-02-11T07:33:53;99731.06;;;-7.53;77.75
43741;BME280;29352;48.708;9.290;2023-02-11T07:36:21;99711.69;;;-6.99;73.83
43741;BME280;29352;48.708;9.290;2023-02-11T07:38:47;99711.84;;;-6.19;71.58
43741;BME280;29352;48.708;9.290;2023-02-11T07:41:16;99715.75;;;-6.49;71.21
43741;BME280;29352;48.708;9.290;2023-02-11T07:43:44;99719.00;;;-6.24;70.36
43741;BME280;29352;48.708;9.290;2023-02-11T07:46:17;99725.13;;;-5.46;71.55
43741;BME280;29352;48.708;9.290;2023-02-11T07:48:46;99737.13;;;-5.06;68.04
43741;BME280;29352;48.708;9.290;2023-02-11T07:51:21;99731.94;;;-5.25;67.26
43741;BME280;29352;48.708;9.290;2023-02-11T07:53:57;99730.94;;;-6.40;69.73
43741;BME280;29352;48.708;9.290;2023-02-11T07:56:23;99726.53;;;-5.97;69.97
43741;BME280;29352;48.708;9.290;2023-02-11T07:58:49;99721.41;;;-6.19;70.23
43741;BME280;29352;48.708;9.290;2023-02-11T08:01:19;99721.56;;;-6.64;71.85
43741;BME280;29352;48.708;9.290;2023-02-11T08:03:51;99721.69;;;-6.68;71.73
43741;BME280;29352;48.708;9.290;2023-02-11T08:06:19;99723.81;;;-6.99;72.71
43741;BME280;29352;48.708;9.290;2023-02-11T08:08:47;99721.81;;;-7.15;73.68
43741;BME280;29352;48.708;9.290;2023-02-11T08:11:26;99724.13;;;-7.07;73.50
43741;BME280;29352;48.708;9.290;2023-02-11T08:13:54;99722.25;;;-7.03;72.65
43741;BME280;29352;48.708;9.290;2023-02-11T08:16:27;99714.00;;;-6.28;71.83
43741;BME280;29352;48.708;9.290;2023-02-11T08:18:57;99708.06;;;-5.91;70.24
43741;BME280;29352;48.708;9.290;2023-02-11T08:21:24;99714.22;;;-6.33;72.37
43741;BME280;29352;48.708;9.290;2023-02-11T08:23:50;99711.72;;;-5.19;69.30
43741;BME280;29352;48.708;9.290;2023-02-11T08:26:19;99704.88;;;-4.32;66.51
43741;BME280;29352;48.708;9.290;2023-02-11T08:28:47;99709.78;;;-2.95;64.19
43741;BME280;29352;48.708;9.290;2023-02-11T08:31:18;99710.88;;;-2.99;62.34
43741;BME280;29352;48.708;9.290;2023-02-11T08:33:46;99709.69;;;-2.47;61.57
43741;BME280;29352;48.708;9.290;2023-02-11T08:36:15;99722.78;;;-2.93;61.78
43741;BME280;29352;48.708;9.290;2023-02-11T08:38:43;99724.84;;;-2.84;61.69
43741;BME280;29352;48.708;9.290;2023-02-11T08:41:10;99734.81;;;-3.71;62.86
43741;BME280;29352;48.708;9.290;2023-02-11T08:43:36;99733.91;;;-4.03;63.80
43741;BME280;29352;48.708;9.290;2023-02-11T08:46:06;99733.31;;;-4.80;65.31
43741;BME280;29352;48.708;9.290;2023-02-11T08:48:33;99722.91;;;-4.62;66.14
43741;BME280;29352;48.708;9.290;2023-02-11T08:50:59;99729.50;;;-4.91;66.78
43741;BME280;29352;48.708;9.290;2023-02-11T08:53:25;99725.81;;;-4.51;66.73
43741;BME280;29352;48.708;9.290;2023-02-11T08:55:53;99729.25;;;-3.81;65.06
43741;BME280;29352;48.708;9.290;2023-02-11T08:58:20;99728.91;;;-2.94;63.97
43741;BME280;29352;48.708;9.290;2023-02-11T09:00:47;99719.88;;;-2.43;62.22
43741;BME280;29352;48.708;9.290;2023-02-11T09:03:14;99717.91;;;-3.80;64.81
43741;BME280;29352;48.708;9.290;2023-02-11T09:05:46;99719.03;;;-3.52;65.28
43741;BME280;29352;48.708;9.290;2023-02-11T09:08:15;99707.38;;;-2.38;62.44
43741;BME280;29352;48.708;9.290;2023-02-11T09:10:41;99708.09;;;-2.05;62.80
43741;BME280;29352;48.708;9.290;2023-02-11T09:13:07;99709.72;;;-1.46;59.59
43741;BME280;29352;48.708;9.290;2023-02-11T09:15:34;99710.56;;;-0.77;56.55
43741;BME280;29352;48.708;9.290;2023-02-11T09:18:00;99716.28;;;-0.05;56.78
43741;BME280;29352;48.708;9.290;2023-02-11T09:20:27;99712.94;;;0.19;55.25
43741;BME280;29352;48.708;9.290;2023-02-11T09:22:53;99703.50;;;0.29;54.94
43741;BME280;29352;48.708;9.290;2023-02-11T09:25:21;99710.28;;;0.06;55.23
43741;BME280;29352;48.708;9.290;2023-02-11T09:27:47;99698.34;;;0.28;56.02
43741;BME280;29352;48.708;9.290;2023-02-11T09:30:12;99692.72;;;-0.32;56.46
43741;BME280;29352;48.708;9.290;2023-02-11T09:32:38;99694.09;;;0.25;54.63
43741;BME280;29352;48.708;9.290;2023-02-11T09:35:04;99694.97;;;0.13;55.82
43741;BME280;29352;48.708;9.290;2023-02-11T09:37:30;99682.03;;;-0.81;57.13
43741;BME280;29352;48.708;9.290;2023-02-11T09:39:55;99691.50;;;0.38;55.77
43741;BME280;29352;48.708;9.290;2023-02-11T09:42:45;99682.44;;;1.51;53.85
43741;BME280;29352;48.708;9.290;2023-02-11T09:45:24;99676.38;;;2.08;52.96
43741;BME280;29352;48.708;9.290;2023-02-11T09:47:57;99688.31;;;-1.11;56.55
43741;BME280;29352;48.708;9.290;2023-02-11T09:50:35;99682.31;;;1.17;54.55
43741;BME280;29352;48.708;9.290;2023-02-11T09:55:52;99678.63;;;2.46;51.99
43741;BME280;29352;48.708;9.290;2023-02-11T10:24:13;99687.34;;;4.28;49.06
43741;BME280;29352;48.708;9.290;2023-02-11T10:26:42;99681.25;;;3.55;49.25
43741;BME280;29352;48.708;9.290;2023-02-11T10:29:34;99687.75;;;3.72;50.33
43741;BME280;29352;48.708;9.290;2023-02-11T10:35:21;99690.88;;;4.69;49.13
43741;BME280;29352;48.708;9.290;2023-02-11T10:37:48;99688.66;;;4.44;49.02
43741;BME280;29352;48.708;9.290;2023-02-11T10:40:18;99689.91;;;4.40;49.31
43741;BME280;29352;48.708;9.290;2023-02-11T10:42:51;99683.28;;;3.94;50.57
43741;BME280;29352;48.708;9.290;2023-02-11T10:45:29;99685.56;;;4.60;49.93
43741;BME280;29352;48.708;9.290;2023-02-11T10:48:00;99676.50;;;5.32;49.23
43741;BME280;29352;48.708;9.290;2023-02-11T10:50:30;99666.69;;;4.84;49.74
43741;BME280;29352;48.708;9.290;2023-02-11T10:53:16;99666.66;;;4.74;49.50
43741;BME280;29352;48.708;9.290;2023-02-11T10:55:54;99669.38;;;3.50;51.01
43741;BME280;29352;48.708;9.290;2023-02-11T10:58:31;99658.09;;;3.90;51.32
43741;BME280;29352;48.708;9.290;2023-02-11T11:01:10;99653.97;;;4.27;49.60
43741;BME280;29352;48.708;9.290;2023-02-11T11:03:45;99648.88;;;4.45;49.76
43741;BME280;29352;48.708;9.290;2023-02-11T11:06:14;99634.38;;;4.99;48.36
43741;BME280;29352;48.708;9.290;2023-02-11T11:08:52;99632.31;;;5.13;47.90
43741;BME280;29352;48.708;9.290;2023-02-11T11:11:20;99630.28;;;4.57;49.26
43741;BME280;29352;48.708;9.290;2023-02-11T11:13:59;99621.56;;;4.95;47.25
43741;BME280;29352;48.708;9.290;2023-02-11T11:16:30;99625.31;;;5.41;48.27
43741;BME280;29352;48.708;9.290;2023-02-11T11:24:22;99624.22;;;5.05;47.79
43741;BME280;29352;48.708;9.290;2023-02-11T11:26:58;99625.31;;;5.80;47.22
43741;BME280;29352;48.708;9.290;2023-02-11T11:29:41;99628.38;;;5.56;47.34
43741;BME280;29352;48.708;9.290;2023-02-11T11:32:18;99622.66;;;5.60;48.01
43741;BME280;29352;48.708;9.290;2023-02-11T11:34:53;99611.19;;;5.79;47.73
43741;BME280;29352;48.708;9.290;2023-02-11T11:37:29;99621.59;;;3.74;48.63
43741;BME280;29352;48.708;9.290;2023-02-11T11:40:03;99620.78;;;4.44;48.67
43741;BME280;29352;48.708;9.290;2023-02-11T11:42:37;99633.41;;;4.41;48.41
43741;BME280;29352;48.708;9.290;2023-02-11T11:56:05;99612.97;;;1.64;53.38
43741;BME280;29352;48.708;9.290;2023-02-11T11:58:37;99608.22;;;3.45;50.69
43741;BME280;29352;48.708;9.290;2023-02-11T12:12:33;99600.00;;;4.80;48.82
43741;BME280;29352;48.708;9.290;2023-02-11T12:15:25;99601.69;;;4.31;49.00
43741;BME280;29352;48.708;9.290;2023-02-11T12:18:19;99609.22;;;4.45;49.36
43741;BME280;29352;48.708;9.290;2023-02-11T12:26:52;99596.78;;;5.06;49.15
43741;BME280;29352;48.708;9.290;2023-02-11T12:35:30;99600.41;;;5.14;49.47
43741;BME280;29352;48.708;9.290;2023-02-11T12:50:48;99605.84;;;3.42;51.33
43741;BME280;29352;48.708;9.290;2023-02-11T13:02:27;99600.81;;;3.39;54.83
43741;BME280;29352;48.708;9.290;2023-02-11T13:04:57;99593.06;;;3.47;53.50
43741;BME280;29352;48.708;9.290;2023-02-11T13:07:35;99591.16;;;3.28;53.87
43741;BME280;29352;48.708;9.290;2023-02-11T13:12:37;99582.25;;;3.50;53.62
43741;BME280;29352;48.708;9.290;2023-02-11T13:15:28;99590.25;;;3.39;52.73
43741;BME280;29352;48.708;9.290;2023-02-11T13:18:11;99588.03;;;3.23;52.93
43741;BME280;29352;48.708;9.290;2023-02-11T13:20:57;99584.09;;;2.96;53.84
43741;BME280;29352;48.708;9.290;2023-02-11T13:23:30;99583.97;;;3.19;53.66
43741;BME280;29352;48.708;9.290;2023-02-11T13:26:20;99578.44;;;3.64;52.87
43741;BME280;29352;48.708;9.290;2023-02-11T13:29:28;99570.59;;;3.73;52.33
43741;BME280;29352;48.708;9.290;2023-02-11T13:32:14;99570.22;;;3.57;52.05
43741;BME280;29352;48.708;9.290;2023-02-11T13:43:00;99576.53;;;4.06;54.78
43741;BME280;29352;48.708;9.290;2023-02-11T13:48:03;99573.47;;;3.70;54.57
43741;BME280;29352;48.708;9.290;2023-02-11T13:50:38;99570.97;;;3.69;55.22
43741;BME280;29352;48.708;9.290;2023-02-11T13:53:11;99574.19;;;3.72;54.91
43741;BME280;29352;48.708;9.290;2023-02-11T13:55:39;99576.22;;;3.38;55.99
43741;BME280;29352;48.708;9.290;2023-02-11T14:00:46;99570.88;;;3.28;56.09
43741;BME280;29352;48.708;9.290;2023-02-11T14:03:26;99571.84;;;2.95;56.70
43741;BME280;29352;48.708;9.290;2023-02-11T14:06:14;99566.38;;;2.87;57.81
43741;BME280;29352;48.708;9.290;2023-02-11T14:19:43;99564.94;;;3.36;57.55
43741;BME280;29352;48.708;9.290;2023-02-11T14:22:17;99560.81;;;3.22;58.65
43741;BME280;29352;48.708;9.290;2023-02-11T14:24:54;99559.38;;;3.18;59.20
43741;BME280;29352;48.708;9.290;2023-02-11T14:27:28;99568.84;;;3.21;59.14
43741;BME280;29352;48.708;9.290;2023-02-11T14:36:26;99551.53;;;3.07;59.55
43741;BME280;29352;48.708;9.290;2023-02-11T14:42:18;99552.94;;;2.90;59.97
43741;BME280;29352;48.708;9.290;2023-02-11T14:44:52;99557.31;;;3.01;59.16
43741;BME280;29352;48.708;9.290;2023-02-11T14:47:28;99565.28;;;2.90;60.18
43741;BME280;29352;48.708;9.290;2023-02-11T14:50:01;99568.91;;;2.89;61.33
43741;BME280;29352;48.708;9.290;2023-02-11T14:52:36;99563.50;;;3.11;59.38
43741;BME280;29352;48.708;9.290;2023-02-11T14:55:29;99567.44;;;3.17;59.37
43741;BME280;29352;48.708;9.290;2023-02-11T14:58:27;99566.63;;;3.16;59.75
43741;BME280;29352;48.708;9.290;2023-02-11T15:06:23;99582.44;;;2.84;60.34
43741;BME280;29352;48.708;9.290;2023-02-11T15:08:56;99581.16;;;2.78;61.12
43741;BME280;29352;48.708;9.290;2023-02-11T15:11:31;99586.22;;;2.70;61.36
43741;BME280;29352;48.708;9.290;2023-02-11T15:14:15;99576.84;;;2.77;60.75
43741;BME280;29352;48.708;9.290;2023-02-11T15:16:51;99576.59;;;2.26;61.82
43741;BME280;29352;48.708;9.290;2023-02-11T15:19:30;99580.94;;;2.16;62.05
43741;BME280;29352;48.708;9.290;2023-02-11T15:22:03;99577.97;;;2.09;62.53
43741;BME280;29352;48.708;9.290;2023-02-11T15:24:33;99583.22;;;2.20;62.38
43741;BME280;29352;48.708;9.290;2023-02-11T15:27:10;99579.66;;;1.99;62.21
43741;BME280;29352;48.708;9.290;2023-02-11T15:29:43;99577.25;;;1.96;62.09
43741;BME280;29352;48.708;9.290;2023-02-11T15:32:17;99569.56;;;1.81;63.04
43741;BME280;29352;48.708;9.290;2023-02-11T15:34:50;99573.34;;;1.43;64.10
43741;BME280;29352;48.708;9.290;2023-02-11T15:37:27;99579.09;;;0.67;65.66
43741;BME280;29352;48.708;9.290;2023-02-11T15:40:17;99575.38;;;0.45;66.95
43741;BME280;29352;48.708;9.290;2023-02-11T15:43:02;99589.38;;;0.46;65.76
43741;BME280;29352;48.708;9.290;2023-02-11T15:45:43;99595.09;;;0.51;66.15
43741;BME280;29352;48.708;9.290;2023-02-11T15:51:28;99593.19;;;0.04;67.27
43741;BME280;29352;48.708;9.290;2023-02-11T15:54:02;99593.94;;;-0.20;66.93
43741;BME280;29352;48.708;9.290;2023-02-11T15:56:37;99603.63;;;-0.33;67.84
43741;BME280;29352;48.708;9.290;2023-02-11T15:59:22;99605.94;;;-0.54;68.08
43741;BME280;29352;48.708;9.290;2023-02-11T16:01:53;99606.41;;;-0.87;68.93
43741;BME280;29352;48.708;9.290;2023-02-11T16:04:23;99600.47;;;-1.04;69.42
43741;BME280;29352;48.708;9.290;2023-02-11T16:06:51;99608.09;;;-1.13;69.70
43741;BME280;29352;48.708;9.290;2023-02-11T16:14:28;99621.69;;;-1.21;69.97
43741;BME280;29352;48.708;9.290;2023-02-11T16:17:06;99627.25;;;-1.26;69.98
43741;BME280;29352;48.708;9.290;2023-02-11T16:19:42;99631.31;;;-1.49;70.74
43741;BME280;29352;48.708;9.290;2023-02-11T16:22:19;99626.66;;;-1.44;70.90
43741;BME280;29352;48.708;9.290;2023-02-11T16:24:51;99632.47;;;-1.53;71.16
43741;BME280;29352;48.708;9.290;2023-02-11T16:27:22;99633.41;;;-1.68;71.75